Time;durP1;ratioP1;P1;durP2;ratioP2;P2;SDS_P1;SDS_P2;PMS_P1;PMS_P2;Temp;Humidity;BMP_temperature;BMP_pressure;BME280_temperature;BME280_humidity;BME280_pressure;Samples;Min_cycle;Max_cycle;Signal;HPM_P1;HPM_P2
2022/05/07 00:02:20;;;;;;;8.55;4.72;;;14.90;99.90;;;;;;5059193;28;20049;-80
2022/05/07 00:04:48;;;;;;;10.15;4.05;;;14.90;99.90;;;;;;5058226;28;20065;-80
2022/05/07 00:07:14;;;;;;;8.10;4.03;;;14.90;99.90;;;;;;5062145;28;20047;-80
2022/05/07 00:09:40;;;;;;;8.65;4.35;;;14.90;99.90;;;;;;5059377;28;20171;-79
2022/05/07 00:12:13;;;;;;;10.63;5.05;;;14.70;99.90;;;;;;5061669;28;20047;-80
2022/05/07 00:14:38;;;;;;;10.57;4.13;;;14.90;99.90;;;;;;5073097;28;20033;-80
2022/05/07 00:19:49;;;;;;;8.07;4.15;;;14.80;99.90;;;;;;5062761;28;20804;-79
2022/05/07 00:22:15;;;;;;;8.05;4.13;;;14.50;99.90;;;;;;5061182;28;20085;-79
2022/05/07 00:24:41;;;;;;;7.57;5.38;;;14.70;99.90;;;;;;5067469;28;20041;-80
2022/05/07 00:27:13;;;;;;;10.15;5.07;;;14.70;99.90;;;;;;5061047;28;20045;-80
2022/05/07 00:29:42;;;;;;;9.20;3.83;;;14.70;99.90;;;;;;5076675;28;20140;-81
2022/05/07 00:32:09;;;;;;;10.23;4.78;;;14.70;99.90;;;;;;5059623;28;20036;-80
2022/05/07 00:34:40;;;;;;;11.13;4.55;;;14.60;99.90;;;;;;5060935;28;20102;-80
2022/05/07 00:37:06;;;;;;;9.50;4.70;;;14.70;99.90;;;;;;5060074;28;20041;-80
2022/05/07 00:39:32;;;;;;;8.95;4.40;;;14.70;99.90;;;;;;5059271;28;20049;-80
2022/05/07 00:42:05;;;;;;;10.18;5.22;;;14.70;99.90;;;;;;5076752;28;20178;-80
2022/05/07 00:44:34;;;;;;;7.60;4.05;;;14.70;99.90;;;;;;5076246;27;20049;-80
2022/05/07 00:47:27;;;;;;;7.55;3.95;;;14.70;99.90;;;;;;5058621;28;20164;-80
2022/05/07 00:52:47;;;;;;;8.13;4.45;;;14.50;99.90;;;;;;5025167;28;20054;-79
2022/05/07 00:55:14;;;;;;;9.68;5.53;;;14.50;99.90;;;;;;5061131;28;20044;-79
2022/05/07 00:57:40;;;;;;;10.93;5.50;;;14.40;99.90;;;;;;5076032;28;20618;-80
2022/05/07 01:00:08;;;;;;;9.18;4.70;;;14.40;99.90;;;;;;5060597;28;20076;-80
2022/05/07 01:02:38;;;;;;;9.52;4.85;;;14.40;99.90;;;;;;5061246;28;20616;-80
2022/05/07 01:05:08;;;;;;;12.45;5.38;;;14.40;99.90;;;;;;5058594;28;20049;-80
2022/05/07 01:07:37;;;;;;;11.63;4.93;;;14.30;99.90;;;;;;5075362;27;20037;-80
2022/05/07 01:10:04;;;;;;;10.43;6.25;;;13.50;99.90;;;;;;5058361;28;20037;-80
2022/05/07 01:12:35;;;;;;;11.85;5.57;;;14.30;99.90;;;;;;5061267;28;20188;-81
2022/05/07 01:15:07;;;;;;;12.35;6.47;;;14.30;99.90;;;;;;5059194;28;20091;-80
2022/05/07 01:17:33;;;;;;;11.63;5.72;;;14.30;99.90;;;;;;5061868;28;20041;-80
2022/05/07 01:20:09;;;;;;;12.25;5.53;;;14.20;99.90;;;;;;5063837;28;20037;-80
2022/05/07 01:22:35;;;;;;;12.20;5.07;;;14.20;99.90;;;;;;5081091;28;20168;-80
2022/05/07 01:25:01;;;;;;;9.93;6.03;;;14.20;99.90;;;;;;5063540;28;20526;-80
2022/05/07 01:27:28;;;;;;;10.25;5.05;;;14.10;99.90;;;;;;5064891;28;20109;-79
2022/05/07 01:29:53;;;;;;;15.32;7.95;;;14.30;99.90;;;;;;5062835;28;20046;-80
2022/05/07 01:32:22;;;;;;;16.38;7.55;;;14.10;99.90;;;;;;5063495;28;20208;-80
2022/05/07 01:34:48;;;;;;;12.30;5.88;;;14.10;99.90;;;;;;5071850;28;20048;-80
2022/05/07 01:37:16;;;;;;;18.73;7.25;;;14.00;99.90;;;;;;5062889;28;20856;-81
2022/05/07 01:39:42;;;;;;;12.82;6.97;;;14.50;99.90;;;;;;5064251;28;20546;-81
2022/05/07 01:42:08;;;;;;;15.70;6.78;;;14.00;99.90;;;;;;5064180;28;20052;-80
2022/05/07 01:44:34;;;;;;;13.30;6.25;;;13.70;99.90;;;;;;5065258;28;20071;-81
2022/05/07 01:49:44;;;;;;;16.45;7.80;;;14.00;99.90;;;;;;5067151;28;20061;-80
2022/05/07 01:52:11;;;;;;;13.63;7.28;;;14.00;99.90;;;;;;5065027;28;20052;-80
2022/05/07 01:54:36;;;;;;;15.52;8.10;;;14.00;99.90;;;;;;5065956;28;20526;-81
2022/05/07 01:57:05;;;;;;;13.65;6.78;;;13.90;99.90;;;;;;5064016;28;20044;-80
2022/05/07 01:59:37;;;;;;;14.88;7.40;;;13.90;99.90;;;;;;5064365;28;20073;-80
2022/05/07 02:02:03;;;;;;;15.88;7.82;;;13.90;99.90;;;;;;5065075;28;20123;-80
2022/05/07 02:04:29;;;;;;;15.02;7.82;;;13.90;99.90;;;;;;5077735;27;20044;-80
2022/05/07 02:06:55;;;;;;;13.70;7.55;;;13.90;99.90;;;;;;5063410;28;20054;-80
2022/05/07 02:09:24;;;;;;;16.45;6.95;;;13.70;99.90;;;;;;5059696;28;20090;-80
2022/05/07 02:11:50;;;;;;;17.60;8.13;;;14.30;99.90;;;;;;5064835;28;20045;-80
2022/05/07 02:14:18;;;;;;;11.43;6.25;;;13.80;99.90;;;;;;5080652;28;20426;-80
2022/05/07 02:16:44;;;;;;;15.25;8.25;;;13.80;99.90;;;;;;5062784;28;20115;-80
2022/05/07 02:19:10;;;;;;;12.65;6.32;;;13.70;99.90;;;;;;5064218;28;20053;-80
2022/05/07 02:21:38;;;;;;;19.42;7.57;;;13.80;99.90;;;;;;5076597;28;20053;-80
2022/05/07 02:24:08;;;;;;;15.70;7.85;;;13.90;99.90;;;;;;5068505;28;20166;-80
2022/05/07 02:26:33;;;;;;;20.20;8.35;;;13.80;99.90;;;;;;5079326;28;20049;-80
2022/05/07 02:29:02;;;;;;;17.70;7.82;;;13.80;99.90;;;;;;5058686;28;20067;-81
2022/05/07 02:31:28;;;;;;;15.40;8.55;;;13.70;99.90;;;;;;5064396;28;20055;-80
2022/05/07 02:33:54;;;;;;;19.42;8.25;;;13.70;99.90;;;;;;5063884;28;20033;-80
2022/05/07 02:36:20;;;;;;;12.82;6.97;;;13.70;99.90;;;;;;5061057;28;20511;-80
2022/05/07 02:38:46;;;;;;;17.05;8.55;;;13.80;99.90;;;;;;5076758;28;20041;-80
2022/05/07 02:43:57;;;;;;;12.88;7.03;;;13.70;99.90;;;;;;5062602;28;20130;-81
2022/05/07 02:46:23;;;;;;;17.10;7.97;;;13.70;99.90;;;;;;5063162;28;20071;-80
2022/05/07 02:48:58;;;;;;;13.68;7.07;;;13.60;99.90;;;;;;5061800;28;20056;-80
2022/05/07 02:51:27;;;;;;;17.63;8.50;;;13.60;99.90;;;;;;5062444;28;20049;-80
2022/05/07 02:53:53;;;;;;;17.45;8.88;;;13.60;99.90;;;;;;5064916;28;20115;-79
2022/05/07 02:56:21;;;;;;;12.95;6.88;;;13.60;99.90;;;;;;5060319;28;20142;-80
2022/05/07 02:58:49;;;;;;;17.63;9.20;;;13.70;99.90;;;;;;5059634;28;20124;-80
2022/05/07 03:01:15;;;;;;;15.65;7.45;;;13.60;99.90;;;;;;5064428;28;20041;-80
2022/05/07 03:03:44;;;;;;;16.75;8.20;;;13.60;99.90;;;;;;5079343;28;20668;-80
2022/05/07 03:06:10;;;;;;;13.70;6.78;;;13.60;99.90;;;;;;5064515;28;20033;-81
2022/05/07 03:08:36;;;;;;;17.30;7.20;;;13.50;99.90;;;;;;5074435;28;20041;-80
2022/05/07 03:11:02;;;;;;;17.40;8.38;;;13.50;99.90;;;;;;5062780;28;20041;-80
2022/05/07 03:13:28;;;;;;;15.32;7.75;;;13.50;99.90;;;;;;5062633;28;20037;-80
2022/05/07 03:15:54;;;;;;;15.85;8.80;;;13.90;99.90;;;;;;5062960;28;20036;-79
2022/05/07 03:18:20;;;;;;;20.95;8.68;;;13.60;99.90;;;;;;5061844;28;20450;-80
2022/05/07 03:20:46;;;;;;;12.82;7.13;;;13.60;99.90;;;;;;5061636;28;20037;-80
2022/05/07 03:23:14;;;;;;;15.60;8.20;;;13.60;99.90;;;;;;5062952;28;20048;-79
2022/05/07 03:25:42;;;;;;;15.07;7.15;;;13.60;99.90;;;;;;5060432;28;20072;-80
2022/05/07 03:28:08;;;;;;;19.27;8.35;;;13.50;99.90;;;;;;5059779;28;20045;-79
2022/05/07 03:30:34;;;;;;;15.43;7.35;;;13.00;99.90;;;;;;5062023;28;20427;-80
2022/05/07 03:33:00;;;;;;;16.02;8.02;;;13.40;99.90;;;;;;5062358;28;20036;-80
2022/05/07 03:35:28;;;;;;;15.80;7.03;;;13.40;99.90;;;;;;5063407;28;20045;-79
2022/05/07 03:37:53;;;;;;;15.15;8.63;;;13.40;99.90;;;;;;5063674;28;20580;-79
2022/05/07 03:40:20;;;;;;;17.05;8.18;;;13.50;99.90;;;;;;5075660;27;20167;-80
2022/05/07 03:42:48;;;;;;;14.90;8.02;;;13.50;99.90;;;;;;5062470;28;20092;-80
2022/05/07 03:45:14;;;;;;;15.68;8.15;;;13.50;99.90;;;;;;5079278;28;20048;-80
2022/05/07 03:47:40;;;;;;;15.80;8.65;;;13.50;99.90;;;;;;5060782;28;20551;-79
2022/05/07 03:50:06;;;;;;;15.18;8.45;;;13.50;99.90;;;;;;5061511;28;20053;-79
2022/05/07 03:55:20;;;;;;;17.88;8.10;;;13.50;99.90;;;;;;5062601;28;20785;-80
2022/05/07 03:57:49;;;;;;;18.23;8.07;;;13.40;99.90;;;;;;5076562;27;20037;-80
2022/05/07 04:00:17;;;;;;;13.80;7.25;;;13.30;99.90;;;;;;5061162;28;20542;-79
2022/05/07 04:02:43;;;;;;;17.65;8.93;;;13.30;99.90;;;;;;5063406;28;20040;-80
2022/05/07 04:05:09;;;;;;;16.90;7.63;;;13.30;99.90;;;;;;5063028;28;20049;-80
2022/05/07 04:07:36;;;;;;;18.00;7.53;;;13.30;99.90;;;;;;5059299;28;20044;-80
2022/05/07 04:10:08;;;;;;;18.20;8.93;;;13.30;99.90;;;;;;5059101;28;20542;-80
2022/05/07 04:12:34;;;;;;;14.75;7.35;;;13.20;99.90;;;;;;5061953;28;20048;-79
2022/05/07 04:15:03;;;;;;;15.65;7.95;;;13.20;99.90;;;;;;5061144;28;20237;-81
2022/05/07 04:17:32;;;;;;;16.58;7.85;;;13.20;99.90;;;;;;5077614;28;20545;-80
2022/05/07 04:20:01;;;;;;;15.98;7.72;;;13.50;99.90;;;;;;5061717;28;20080;-80
2022/05/07 04:22:34;;;;;;;17.83;7.55;;;13.00;99.90;;;;;;5061870;28;20045;-79
2022/05/07 04:25:00;;;;;;;15.77;7.68;;;13.00;99.90;;;;;;5064094;28;20044;-80
2022/05/07 04:27:33;;;;;;;13.10;7.82;;;13.00;99.90;;;;;;5062873;28;20127;-80
2022/05/07 04:29:59;;;;;;;17.85;8.57;;;13.10;99.90;;;;;;5062437;28;20055;-80
2022/05/07 04:32:34;;;;;;;16.92;7.97;;;13.00;99.90;;;;;;5061696;28;20131;-80
2022/05/07 04:35:00;;;;;;;16.50;7.70;;;13.10;99.90;;;;;;5059302;28;20423;-80
2022/05/07 04:37:29;;;;;;;15.07;7.40;;;13.10;99.90;;;;;;5060441;28;20037;-80
2022/05/07 04:39:58;;;;;;;14.88;6.88;;;13.50;99.90;;;;;;5060410;28;20041;-80
2022/05/07 04:42:24;;;;;;;18.73;8.25;;;13.10;99.90;;;;;;5061216;28;20045;-80
2022/05/07 04:44:50;;;;;;;14.20;7.28;;;13.10;99.90;;;;;;5076564;28;20088;-80
2022/05/07 04:47:16;;;;;;;17.38;7.80;;;13.10;99.90;;;;;;5060201;28;20082;-80
2022/05/07 04:49:42;;;;;;;19.08;9.52;;;13.20;99.90;;;;;;5059603;28;20071;-80
2022/05/07 04:52:08;;;;;;;16.35;8.38;;;13.20;99.90;;;;;;5064218;28;20044;-80
2022/05/07 04:54:34;;;;;;;21.98;8.55;;;13.30;99.90;;;;;;5063420;28;20037;-79
2022/05/07 04:57:00;;;;;;;18.52;8.77;;;13.40;99.90;;;;;;5063943;28;20115;-80
2022/05/07 04:59:28;;;;;;;18.65;9.00;;;13.40;99.90;;;;;;5065952;28;20592;-80
2022/05/07 05:01:54;;;;;;;16.95;7.57;;;13.40;99.90;;;;;;5063266;28;20037;-80
2022/05/07 05:04:20;;;;;;;18.60;7.85;;;13.40;99.90;;;;;;5064688;28;20049;-81
2022/05/07 05:06:49;;;;;;;19.95;8.43;;;13.50;99.90;;;;;;5061872;28;20847;-80
2022/05/07 05:09:15;;;;;;;14.90;7.82;;;13.50;99.90;;;;;;5061141;28;20048;-80
2022/05/07 05:11:42;;;;;;;19.20;9.10;;;13.50;99.90;;;;;;5064000;28;20045;-80
2022/05/07 05:16:57;;;;;;;15.48;7.68;;;13.50;99.90;;;;;;5063833;28;20087;-80
2022/05/07 05:19:29;;;;;;;17.83;8.63;;;13.50;99.90;;;;;;5063493;28;20135;-80
2022/05/07 05:21:58;;;;;;;18.70;10.27;;;13.50;99.90;;;;;;5063866;28;20036;-79
2022/05/07 05:24:24;;;;;;;19.38;9.50;;;13.50;99.90;;;;;;5063908;28;20965;-80
2022/05/07 05:26:52;;;;;;;16.05;7.93;;;13.60;99.90;;;;;;5061014;28;20763;-80
2022/05/07 05:29:19;;;;;;;19.33;9.75;;;13.60;99.90;;;;;;5063262;28;20040;-79
2022/05/07 05:31:47;;;;;;;20.67;9.05;;;13.60;99.90;;;;;;5061943;28;20041;-80
2022/05/07 05:34:13;;;;;;;19.10;8.85;;;13.60;99.90;;;;;;5062755;28;20045;-81
2022/05/07 05:36:40;;;;;;;17.45;7.40;;;13.70;99.90;;;;;;5060835;28;20056;-80
2022/05/07 05:39:07;;;;;;;20.33;10.27;;;13.60;99.90;;;;;;5063105;28;20036;-80
2022/05/07 05:41:35;;;;;;;21.17;10.27;;;13.90;99.90;;;;;;5061937;28;20032;-80
2022/05/07 05:44:04;;;;;;;19.65;9.18;;;13.50;99.90;;;;;;5065346;28;20661;-80
2022/05/07 05:46:33;;;;;;;21.80;10.00;;;13.50;99.90;;;;;;5063386;28;20049;-80
2022/05/07 05:48:59;;;;;;;17.98;9.18;;;13.60;99.90;;;;;;5060987;28;20094;-79
2022/05/07 05:51:30;;;;;;;15.68;8.13;;;13.60;99.90;;;;;;5062934;28;20079;-80
2022/05/07 05:53:56;;;;;;;21.00;8.88;;;13.50;99.90;;;;;;5062859;28;20095;-80
2022/05/07 05:56:22;;;;;;;17.33;10.15;;;13.50;99.90;;;;;;5077730;27;20057;-80
2022/05/07 05:58:48;;;;;;;16.48;8.55;;;13.50;99.90;;;;;;5063995;28;20112;-79
2022/05/07 06:01:14;;;;;;;16.05;7.85;;;13.60;99.90;;;;;;5060815;28;20502;-80
2022/05/07 06:03:40;;;;;;;16.67;7.78;;;13.60;99.90;;;;;;5063921;28;20821;-79
2022/05/07 06:06:06;;;;;;;15.15;8.70;;;13.50;99.90;;;;;;5061741;28;20040;-81
2022/05/07 06:08:31;;;;;;;19.83;9.52;;;13.50;99.90;;;;;;5077811;28;20045;-80
2022/05/07 06:10:57;;;;;;;14.95;8.15;;;13.50;99.90;;;;;;5062270;28;20036;-80
2022/05/07 06:13:26;;;;;;;16.73;8.15;;;13.50;99.90;;;;;;5064292;28;20447;-80
2022/05/07 06:15:52;;;;;;;18.33;9.13;;;13.60;99.90;;;;;;5061088;28;20053;-80
2022/05/07 06:18:21;;;;;;;19.25;9.43;;;14.40;99.90;;;;;;5062958;28;20102;-79
2022/05/07 06:20:51;;;;;;;14.77;6.82;;;13.60;99.90;;;;;;5059663;28;20033;-80
2022/05/07 06:23:26;;;;;;;16.10;8.40;;;13.60;99.90;;;;;;5060859;28;20044;-80
2022/05/07 06:28:36;;;;;;;17.75;9.43;;;13.60;99.90;;;;;;5067332;28;20162;-79
2022/05/07 06:31:03;;;;;;;19.23;9.48;;;13.70;99.90;;;;;;5082298;28;21302;-80
2022/05/07 06:33:32;;;;;;;17.20;8.70;;;13.70;99.90;;;;;;5063774;28;20041;-79
2022/05/07 06:35:58;;;;;;;17.70;8.05;;;13.70;99.90;;;;;;5080278;28;20056;-79
2022/05/07 06:38:27;;;;;;;15.40;7.53;;;13.60;99.90;;;;;;5081180;28;20613;-80
2022/05/07 06:40:56;;;;;;;15.88;7.82;;;13.50;99.90;;;;;;5064650;28;20553;-78
2022/05/07 06:43:33;;;;;;;16.08;7.85;;;13.60;99.90;;;;;;5062907;28;20047;-85
2022/05/07 06:46:05;;;;;;;16.85;8.45;;;13.70;99.90;;;;;;5063203;28;20563;-78
2022/05/07 06:48:35;;;;;;;18.85;9.10;;;13.70;99.90;;;;;;5063644;28;20047;-79
2022/05/07 06:51:04;;;;;;;16.23;7.72;;;13.70;99.90;;;;;;5079665;27;20057;-79
2022/05/07 06:53:30;;;;;;;16.63;8.13;;;13.80;99.90;;;;;;5064729;28;20041;-79
2022/05/07 06:55:56;;;;;;;13.07;7.15;;;13.80;99.90;;;;;;5062740;28;20335;-78
2022/05/07 06:58:27;;;;;;;14.98;7.45;;;13.80;99.90;;;;;;5061788;28;20044;-78
2022/05/07 07:00:53;;;;;;;14.80;8.60;;;13.80;99.90;;;;;;5060453;28;21478;-77
2022/05/07 07:03:19;;;;;;;14.38;7.18;;;13.20;99.90;;;;;;5065422;28;20436;-79
2022/05/07 07:05:47;;;;;;;13.80;7.13;;;13.90;99.90;;;;;;5065867;28;20041;-78
2022/05/07 07:08:14;;;;;;;13.68;7.55;;;13.80;99.90;;;;;;5063749;28;20049;-78
2022/05/07 07:10:45;;;;;;;19.65;7.78;;;13.90;99.90;;;;;;5065306;28;20408;-78
2022/05/07 07:13:16;;;;;;;14.48;8.13;;;14.00;99.90;;;;;;5061465;28;20171;-80
2022/05/07 07:15:42;;;;;;;13.38;7.18;;;15.10;99.90;;;;;;5059078;28;20088;-78
2022/05/07 07:18:14;;;;;;;13.98;7.22;;;14.10;99.90;;;;;;5061724;28;20102;-77
2022/05/07 07:20:43;;;;;;;;;;;14.20;99.90;;;;;;5080093;28;20666;-79
2022/05/07 07:23:11;;;;;;;17.17;8.55;;;14.20;99.90;;;;;;5061601;28;20405;-78
2022/05/07 07:25:45;;;;;;;15.18;8.43;;;14.10;99.90;;;;;;5061024;28;20052;-79
2022/05/07 07:28:12;;;;;;;17.98;8.38;;;14.20;99.90;;;;;;5064294;28;20094;-78
2022/05/07 07:30:38;;;;;;;13.98;7.28;;;14.30;99.90;;;;;;5061997;28;20040;-78
2022/05/07 07:33:29;;;;;;;15.88;7.70;;;14.40;99.90;;;;;;5064214;28;20040;-79
2022/05/07 07:35:58;;;;;;;17.35;7.65;;;14.20;99.90;;;;;;5064824;28;20060;-78
2022/05/07 07:38:27;;;;;;;15.63;8.02;;;14.60;99.90;;;;;;5062136;28;20554;-78
2022/05/07 07:40:57;;;;;;;16.67;7.95;;;14.70;99.90;;;;;;5065787;28;20044;-78
2022/05/07 07:43:25;;;;;;;14.15;7.38;;;14.60;99.90;;;;;;5062353;28;20075;-79
2022/05/07 07:48:39;;;;;;;15.98;8.27;;;15.00;99.90;;;;;;5070156;28;20668;-78
2022/05/07 07:51:06;;;;;;;12.88;6.70;;;14.90;99.90;;;;;;5061757;28;20125;-78
2022/05/07 07:53:33;;;;;;;15.23;8.20;;;14.90;99.90;;;;;;5064671;28;20047;-78
2022/05/07 07:55:59;;;;;;;13.55;6.22;;;14.80;99.90;;;;;;5061249;28;20055;-78
2022/05/07 07:58:31;;;;;;;14.82;7.05;;;14.70;99.90;;;;;;5064303;28;20151;-79
2022/05/07 08:01:06;;;;;;;14.80;7.43;;;14.70;99.90;;;;;;5061360;28;20091;-78
2022/05/07 08:03:37;;;;;;;13.45;7.72;;;15.00;99.90;;;;;;5062317;28;20102;-78
2022/05/07 08:06:06;;;;;;;11.02;6.22;;;14.90;99.90;;;;;;5060500;28;20049;-79
2022/05/07 08:11:41;;;;;;;14.02;7.38;;;15.80;99.90;;;;;;5061538;28;20302;-78
2022/05/07 08:14:08;;;;;;;11.27;6.18;;;14.80;99.90;;;;;;5061851;28;20051;-78
2022/05/07 08:16:37;;;;;;;14.38;6.47;;;14.70;99.90;;;;;;5060926;28;20045;-78
2022/05/07 08:19:16;;;;;;;;;;;;;;;;;;;;;
2022/05/07 08:21:58;;;;;;;13.65;5.97;;;14.80;99.90;;;;;;5059066;28;40189;-81
2022/05/07 08:24:32;;;;;;;8.37;5.30;;;14.90;99.90;;;;;;5062077;28;20057;-79
2022/05/07 08:27:11;;;;;;;15.75;5.90;;;14.50;99.90;;;;;;5060775;28;20481;-79
2022/05/07 08:29:46;;;;;;;11.82;5.38;;;14.80;99.90;;;;;;5060472;28;20041;-79
2022/05/07 08:32:27;;;;;;;13.52;8.27;;;14.80;99.90;;;;;;5061773;28;20043;-79
2022/05/07 08:34:56;;;;;;;10.00;6.13;;;14.70;99.90;;;;;;5062035;28;20068;-80
2022/05/07 08:37:24;;;;;;;10.55;6.32;;;14.80;99.90;;;;;;5064384;28;20040;-79
2022/05/07 08:39:50;;;;;;;10.90;5.88;;;14.80;99.90;;;;;;5076440;28;20052;-78
2022/05/07 08:42:16;;;;;;;11.10;5.93;;;14.80;99.90;;;;;;5060627;28;20045;-78
2022/05/07 08:44:48;;;;;;;13.02;6.43;;;14.40;99.90;;;;;;5065476;28;20040;-79
2022/05/07 08:47:14;;;;;;;;;;;14.70;99.90;;;;;;5063591;28;20045;-79
2022/05/07 08:49:53;;;;;;;11.38;6.43;;;14.80;99.90;;;;;;5065238;28;20455;-79
2022/05/07 08:52:28;;;;;;;10.02;5.65;;;14.70;99.90;;;;;;5063614;28;20061;-79
2022/05/07 08:55:00;;;;;;;12.02;5.75;;;14.70;99.90;;;;;;5062873;28;20107;-79
2022/05/07 08:57:43;;;;;;;9.95;5.05;;;15.00;99.90;;;;;;5064391;28;20083;-79
2022/05/07 09:00:19;;;;;;;10.30;6.53;;;15.00;99.90;;;;;;5076482;27;20053;-85
2022/05/07 09:02:48;;;;;;;13.07;5.88;;;15.90;99.90;;;;;;5062772;28;21481;-81
2022/05/07 09:05:18;;;;;;;10.38;6.07;;;15.10;99.90;;;;;;5061776;28;20040;-80
2022/05/07 09:08:23;;;;;;;14.55;6.72;;;15.20;99.90;;;;;;5066311;28;21354;-79
2022/05/07 09:10:55;;;;;;;10.25;6.07;;;15.20;99.90;;;;;;5032770;28;20041;-80
2022/05/07 09:13:27;;;;;;;11.02;5.57;;;15.30;99.90;;;;;;5064274;28;20053;-80
2022/05/07 09:16:01;;;;;;;13.97;6.07;;;15.30;99.90;;;;;;5066645;28;20113;-81
2022/05/07 09:18:36;;;;;;;10.77;4.82;;;15.40;99.90;;;;;;5062223;28;20057;-81
2022/05/07 09:21:19;;;;;;;11.95;5.32;;;15.40;99.90;;;;;;5081014;28;20041;-79
2022/05/07 09:23:48;;;;;;;11.27;4.55;;;15.40;99.90;;;;;;5067392;28;20037;-86
2022/05/07 09:26:33;;;;;;;13.50;5.35;;;15.40;99.90;;;;;;5067323;28;20037;-78
2022/05/07 09:29:00;;;;;;;10.98;6.47;;;15.40;99.90;;;;;;5063696;28;20800;-80
2022/05/07 09:31:31;;;;;;;13.25;6.50;;;14.80;99.90;;;;;;5064554;28;20049;-79
2022/05/07 09:36:58;;;;;;;10.02;6.05;;;15.50;99.90;;;;;;5067719;28;20053;-80
2022/05/07 09:39:34;;;;;;;10.20;5.72;;;15.60;99.90;;;;;;5067936;28;20112;-80
2022/05/07 09:42:03;;;;;;;12.05;6.40;;;15.70;99.90;;;;;;5063488;28;20139;-80
2022/05/07 09:44:33;;;;;;;11.68;5.75;;;15.70;99.90;;;;;;5084032;28;20094;-80
2022/05/07 09:47:03;;;;;;;10.75;6.30;;;15.70;99.90;;;;;;5083642;28;20048;-80
2022/05/07 09:49:33;;;;;;;9.18;5.22;;;15.40;99.90;;;;;;5066304;28;20059;-80
2022/05/07 09:52:13;;;;;;;9.35;5.20;;;16.20;99.90;;;;;;5073923;28;20513;-80
2022/05/07 09:57:38;;;;;;;12.77;6.70;;;15.80;99.90;;;;;;5079055;28;20993;-80
2022/05/07 10:00:14;;;;;;;12.40;5.88;;;15.80;99.90;;;;;;5079975;28;20036;-81
2022/05/07 10:02:59;;;;;;;11.00;5.72;;;15.90;99.90;;;;;;5076939;28;20051;-80
2022/05/07 10:06:04;;;;;;;10.43;6.03;;;16.00;99.90;;;;;;5093652;28;20037;-80
2022/05/07 10:09:00;;;;;;;15.27;5.95;;;16.10;99.90;;;;;;5092580;27;20486;-80
2022/05/07 10:11:26;;;;;;;12.32;5.88;;;16.20;99.90;;;;;;5094118;28;20024;-80
2022/05/07 10:13:54;;;;;;;14.30;5.90;;;16.30;99.90;;;;;;5089806;28;20060;-81
2022/05/07 10:16:49;;;;;;;;;;;;;;;;;;;;;
2022/05/07 10:19:15;;;;;;;8.85;5.80;;;16.50;99.90;;;;;;5066273;28;38159;-80
2022/05/07 10:21:41;;;;;;;12.32;6.72;;;16.50;99.90;;;;;;5065400;28;20041;-79
2022/05/07 10:24:09;;;;;;;9.50;5.72;;;16.50;99.90;;;;;;5066204;28;20089;-80
2022/05/07 10:26:43;;;;;;;11.05;4.75;;;16.50;99.90;;;;;;5066832;28;20043;-80
2022/05/07 10:29:26;;;;;;;12.40;6.57;;;16.60;99.90;;;;;;5065012;28;20125;-80
2022/05/07 10:32:02;;;;;;;13.93;6.05;;;16.70;99.90;;;;;;5066660;28;20307;-80
2022/05/07 10:34:28;;;;;;;12.02;6.07;;;16.90;99.90;;;;;;5064945;28;20357;-80
2022/05/07 10:37:04;;;;;;;10.55;6.53;;;17.00;99.90;;;;;;5065026;28;20037;-80
2022/05/07 10:39:31;;;;;;;10.93;6.20;;;17.00;99.90;;;;;;5066448;28;20604;-81
2022/05/07 10:41:57;;;;;;;9.13;5.75;;;16.90;99.90;;;;;;5065776;28;20044;-80
2022/05/07 10:44:35;;;;;;;11.18;5.80;;;17.00;99.90;;;;;;5065321;28;20129;-80
2022/05/07 10:47:15;;;;;;;11.82;6.18;;;17.20;99.90;;;;;;5064386;28;20029;-80
2022/05/07 10:50:16;;;;;;;13.43;6.13;;;17.30;99.90;;;;;;5065372;28;20049;-80
2022/05/07 10:52:42;;;;;;;18.02;7.50;;;17.30;99.90;;;;;;4984089;28;20592;-80
2022/05/07 10:55:13;;;;;;;12.60;5.57;;;17.20;99.90;;;;;;5049020;28;20048;-80
2022/05/07 10:57:43;;;;;;;11.30;6.57;;;17.20;99.90;;;;;;5063738;28;20041;-80
2022/05/07 11:00:31;;;;;;;;;;;;;;;;;;;;;
2022/05/07 11:03:00;;;;;;;11.27;5.25;;;17.50;99.90;;;;;;5061971;28;43317;-80
2022/05/07 11:05:34;;;;;;;10.45;6.35;;;17.30;99.90;;;;;;5062136;28;20049;-79
2022/05/07 11:08:03;;;;;;;10.07;6.43;;;17.40;99.90;;;;;;5064559;28;20087;-79
2022/05/07 11:10:35;;;;;;;10.60;5.30;;;17.50;99.90;;;;;;5064642;28;20052;-84
2022/05/07 11:13:09;;;;;;;10.20;5.90;;;17.60;99.90;;;;;;5069428;28;20482;-80
2022/05/07 11:15:45;;;;;;;10.13;5.93;;;17.50;99.90;;;;;;5070558;28;20041;-78
2022/05/07 11:18:17;;;;;;;12.02;6.53;;;17.50;99.90;;;;;;5067464;28;20067;-79
2022/05/07 11:20:49;;;;;;;13.70;6.03;;;17.50;99.90;;;;;;5062040;28;20682;-79
2022/05/07 11:23:15;;;;;;;12.35;6.28;;;17.80;99.90;;;;;;5061802;28;20787;-81
2022/05/07 11:25:45;;;;;;;14.38;6.70;;;17.50;99.90;;;;;;5065518;28;20045;-84
2022/05/07 11:28:14;;;;;;;18.35;7.13;;;17.80;99.90;;;;;;5063788;28;20041;-82
2022/05/07 11:30:52;;;;;;;12.27;5.63;;;17.70;99.90;;;;;;5058571;28;20043;-81
2022/05/07 11:33:25;;;;;;;13.52;7.30;;;17.70;99.90;;;;;;5082949;27;20056;-78
2022/05/07 11:36:10;;;;;;;16.08;6.43;;;17.60;99.90;;;;;;5062011;28;20029;-79
2022/05/07 11:38:43;;;;;;;36.00;13.25;;;17.60;99.90;;;;;;5061215;28;20098;-79
2022/05/07 11:41:12;;;;;;;19.52;8.10;;;17.60;99.90;;;;;;5063835;28;20037;-78
2022/05/07 11:46:23;;;;;;;7.20;3.97;;;17.70;99.90;;;;;;5064374;28;20091;-77
2022/05/07 11:48:49;;;;;;;7.32;3.75;;;17.70;99.90;;;;;;5079077;28;20154;-79
2022/05/07 11:51:25;;;;;;;11.82;5.63;;;17.70;99.90;;;;;;5064097;28;21329;-77
2022/05/07 11:53:52;;;;;;;13.07;5.70;;;18.00;99.90;;;;;;5079144;28;20044;-77
2022/05/07 11:56:18;;;;;;;7.85;3.70;;;18.10;99.90;;;;;;5065775;28;20048;-78
2022/05/07 11:58:47;;;;;;;10.75;5.45;;;18.30;99.90;;;;;;5062777;28;20082;-78
2022/05/07 12:01:53;;;;;;;10.35;4.80;;;18.40;99.90;;;;;;5064158;28;20077;-77
2022/05/07 12:04:37;;;;;;;10.40;5.07;;;18.40;99.90;;;;;;5063797;28;20068;-84
2022/05/07 12:07:03;;;;;;;11.32;4.80;;;18.30;99.90;;;;;;5072158;28;20052;-83
2022/05/07 12:09:38;;;;;;;9.77;4.47;;;18.40;99.90;;;;;;5066079;28;20830;-83
2022/05/07 12:12:05;;;;;;;7.82;3.75;;;18.50;99.90;;;;;;5064612;28;20080;-82
2022/05/07 12:14:31;;;;;;;6.25;3.50;;;18.60;99.90;;;;;;5064702;28;20073;-81
2022/05/07 12:19:49;;;;;;;4.88;2.75;;;18.80;99.90;;;;;;5065155;28;20498;-81
2022/05/07 12:29:53;;;;;;;6.13;3.42;;;19.20;99.90;;;;;;5160933;27;20454;-80
2022/05/07 12:32:27;;;;;;;6.65;3.17;;;18.80;99.90;;;;;;5161254;27;20051;-81
2022/05/07 12:34:56;;;;;;;7.65;3.75;;;19.10;99.90;;;;;;5149463;27;20031;-79
2022/05/07 12:37:23;;;;;;;7.15;3.05;;;19.30;99.90;;;;;;5149642;27;20725;-79
2022/05/07 12:39:52;;;;;;;6.40;3.10;;;19.30;99.90;;;;;;5150013;27;20533;-79
2022/05/07 12:42:18;;;;;;;4.90;2.35;;;19.40;99.90;;;;;;5143617;27;20039;-80
2022/05/07 12:44:49;;;;;;;6.53;2.60;;;18.90;99.90;;;;;;5152151;27;20043;-80
2022/05/07 12:47:25;;;;;;;5.00;2.80;;;19.60;99.90;;;;;;5152339;27;20077;-84
2022/05/07 12:49:51;;;;;;;6.32;3.20;;;19.60;99.90;;;;;;5153484;27;20122;-79
2022/05/07 12:52:33;;;;;;;5.45;3.15;;;19.60;99.90;;;;;;5148466;27;20096;-83
2022/05/07 12:55:06;;;;;;;5.53;2.78;;;19.50;99.90;;;;;;5149926;27;20180;-83
2022/05/07 13:01:32;;;;;;;4.55;2.60;;;19.60;99.90;;;;;;5149697;27;20540;-83
2022/05/07 13:04:22;;;;;;;7.68;3.17;;;19.60;99.90;;;;;;5148895;27;20050;-84
2022/05/07 13:07:06;;;;;;;;;;;;;;;;;;;;;
2022/05/07 13:09:43;;;;;;;6.10;4.00;;;19.80;99.90;;;;;;5150867;27;44723;-82
2022/05/07 13:12:16;;;;;;;5.50;2.50;;;19.70;99.90;;;;;;5149359;27;20517;-80
2022/05/07 13:14:50;;;;;;;5.28;3.30;;;19.60;99.90;;;;;;5148885;27;20135;-80
2022/05/07 13:17:33;;;;;;;5.70;3.28;;;19.60;99.90;;;;;;5151040;27;20042;-80
2022/05/07 13:20:03;;;;;;;5.25;3.65;;;19.60;99.90;;;;;;5149206;27;20051;-81
2022/05/07 13:23:12;;;;;;;;;;;;;;;;;;;;;
2022/05/07 13:25:59;;;;;;;4.68;2.88;;;19.70;99.90;;;;;;5150728;27;39798;-82
2022/05/07 13:28:31;;;;;;;4.40;2.90;;;19.70;99.90;;;;;;5147460;27;20043;-82
2022/05/07 13:31:04;;;;;;;3.97;2.53;;;19.70;99.90;;;;;;5149541;27;20063;-82
2022/05/07 13:33:37;;;;;;;4.78;2.60;;;19.90;99.90;;;;;;5149723;27;20035;-82
2022/05/07 13:36:14;;;;;;;6.57;2.63;;;19.90;99.90;;;;;;5148359;27;20810;-80
2022/05/07 13:38:45;;;;;;;3.92;2.22;;;19.90;99.90;;;;;;5149739;27;21295;-80
2022/05/07 13:41:14;;;;;;;;;;;20.00;99.90;;;;;;5132838;27;20055;-80
2022/05/07 13:43:46;;;;;;;4.68;2.42;;;20.10;99.20;;;;;;5134580;27;19930;-80
2022/05/07 13:46:15;;;;;;;7.95;3.97;;;20.10;99.00;;;;;;5134920;27;20091;-80
2022/05/07 13:48:41;;;;;;;4.45;3.28;;;20.20;99.30;;;;;;5133116;27;20051;-80
2022/05/07 13:51:07;;;;;;;5.18;3.22;;;20.20;99.20;;;;;;5137587;27;20043;-79